createdAt,value
2019-04-28T00:02:08.809Z,99.90
2019-04-28T00:04:49.325Z,99.90
2019-04-28T00:07:22.060Z,99.90
2019-04-28T00:09:53.955Z,99.90
2019-04-28T00:12:24.108Z,99.90
2019-04-28T00:14:57.848Z,99.90
2019-04-28T00:17:33.638Z,99.90
2019-04-28T00:20:06.602Z,99.90
2019-04-28T00:22:54.513Z,99.90
2019-04-28T00:25:31.249Z,99.90
2019-04-28T00:28:02.670Z,99.90
2019-04-28T00:30:33.264Z,99.90
2019-04-28T00:33:03.320Z,99.90
2019-04-28T00:35:35.752Z,99.90
2019-04-28T00:38:09.345Z,99.90
2019-04-28T00:40:46.878Z,99.90
2019-04-28T00:43:22.438Z,99.90
2019-04-28T00:46:00.540Z,99.90
2019-04-28T00:48:30.963Z,99.90
2019-04-28T00:51:09.131Z,99.90
2019-04-28T00:53:48.032Z,99.90
2019-04-28T00:56:31.707Z,99.90
2019-04-28T00:59:02.254Z,99.90
2019-04-28T01:01:45.306Z,99.90
2019-04-28T01:04:16.115Z,99.90
2019-04-28T01:06:47.752Z,99.90
2019-04-28T01:09:18.431Z,99.90
2019-04-28T01:11:48.500Z,99.90
2019-04-28T01:14:18.497Z,99.90
2019-04-28T01:17:19.845Z,99.90
2019-04-28T01:20:02.272Z,99.90
2019-04-28T01:22:41.127Z,99.90
2019-04-28T01:25:10.905Z,99.90
2019-04-28T01:28:00.254Z,99.90
2019-04-28T01:30:49.927Z,99.90
2019-04-28T01:34:05.755Z,99.90
2019-04-28T01:36:45.424Z,99.90
2019-04-28T01:39:20.052Z,99.90
2019-04-28T01:41:55.058Z,99.90
2019-04-28T01:44:25.353Z,99.90
2019-04-28T01:46:55.541Z,99.90
2019-04-28T01:49:25.543Z,99.90
2019-04-28T01:52:01.315Z,99.90
2019-04-28T01:54:36.894Z,99.90
2019-04-28T01:57:07.184Z,99.90
2019-04-28T01:59:40.480Z,99.90
2019-04-28T02:02:10.475Z,99.90
2019-04-28T02:04:41.649Z,99.90
2019-04-28T02:07:13.080Z,99.90
2019-04-28T02:09:43.949Z,99.90
2019-04-28T02:12:13.759Z,99.90
2019-04-28T02:14:43.970Z,99.90
2019-04-28T02:17:14.954Z,99.90
2019-04-28T02:19:47.370Z,99.90
2019-04-28T02:22:31.653Z,99.90
2019-04-28T02:25:02.045Z,99.90
2019-04-28T02:27:32.104Z,99.90
2019-04-28T02:30:02.216Z,99.90
2019-04-28T02:32:31.919Z,99.90
2019-04-28T02:35:01.898Z,99.90
2019-04-28T02:37:34.276Z,99.90
2019-04-28T02:40:04.714Z,99.90
2019-04-28T02:42:34.791Z,99.90
2019-04-28T02:45:07.971Z,99.90
2019-04-28T02:47:44.084Z,99.90
2019-04-28T02:50:33.520Z,99.90
2019-04-28T02:53:13.298Z,99.90
2019-04-28T02:55:48.072Z,99.90
2019-04-28T02:58:22.145Z,99.90
2019-04-28T03:01:02.786Z,99.90
2019-04-28T03:03:21.604Z,99.90
2019-04-28T03:05:51.480Z,99.90
2019-04-28T03:08:24.180Z,99.90
2019-04-28T03:10:54.206Z,99.90
2019-04-28T03:13:24.081Z,99.90
2019-04-28T03:15:54.402Z,99.90
2019-04-28T03:18:24.382Z,99.90
2019-04-28T03:20:55.313Z,99.90
2019-04-28T03:23:25.680Z,99.90
2019-04-28T03:26:15.687Z,99.90
2019-04-28T03:28:54.664Z,99.90
2019-04-28T03:32:14.164Z,99.90
2019-04-28T03:34:22.847Z,99.90
2019-04-28T03:36:51.732Z,99.90
2019-04-28T03:42:42.897Z,99.90
2019-04-28T03:45:21.145Z,99.90
2019-04-28T03:47:51.257Z,99.90
2019-04-28T03:50:21.006Z,99.90
2019-04-28T03:52:51.381Z,99.90
2019-04-28T03:55:21.973Z,99.90
2019-04-28T03:57:51.772Z,99.90
2019-04-28T04:00:22.100Z,99.90
2019-04-28T04:02:52.412Z,99.90
2019-04-28T04:05:22.319Z,99.90
2019-04-28T04:07:52.257Z,99.90
2019-04-28T04:10:35.795Z,99.90
2019-04-28T04:13:41.530Z,99.90
2019-04-28T04:16:26.881Z,99.90
2019-04-28T04:19:00.509Z,99.90
2019-04-28T04:21:31.045Z,99.90
2019-04-28T04:24:01.263Z,99.90
2019-04-28T04:26:33.564Z,99.90
2019-04-28T04:29:03.718Z,99.90
2019-04-28T04:31:33.801Z,99.90
2019-04-28T04:34:03.921Z,99.90
2019-04-28T04:36:33.709Z,99.90
2019-04-28T04:39:05.135Z,99.90
2019-04-28T04:41:34.942Z,99.90
2019-04-28T04:44:05.301Z,99.90
2019-04-28T04:46:35.264Z,99.90
2019-04-28T04:49:05.325Z,99.90
2019-04-28T04:51:35.078Z,99.90
2019-04-28T04:54:05.171Z,99.90
2019-04-28T04:56:34.945Z,99.90
2019-04-28T04:59:05.489Z,99.90
2019-04-28T05:01:54.362Z,99.90
2019-04-28T05:04:50.673Z,99.90
2019-04-28T05:07:20.442Z,99.90
2019-04-28T05:09:50.456Z,99.90
2019-04-28T05:12:20.420Z,99.90
2019-04-28T05:14:53.157Z,99.90
2019-04-28T05:17:25.935Z,99.90
2019-04-28T05:19:56.700Z,99.90
2019-04-28T05:22:29.883Z,99.90
2019-04-28T05:25:10.313Z,99.90
2019-04-28T05:27:41.318Z,99.90
2019-04-28T05:30:13.871Z,99.90
2019-04-28T05:32:49.340Z,99.90
2019-04-28T05:35:17.568Z,99.90
2019-04-28T05:37:47.270Z,99.90
2019-04-28T05:40:21.233Z,99.90
2019-04-28T05:43:01.013Z,99.90
2019-04-28T05:45:40.008Z,99.90
2019-04-28T05:48:09.536Z,99.90
2019-04-28T05:50:57.320Z,99.90
2019-04-28T05:53:36.610Z,99.90
2019-04-28T05:56:20.321Z,99.90
2019-04-28T05:59:14.539Z,99.90
2019-04-28T06:02:02.858Z,99.90
2019-04-28T06:04:32.971Z,99.90
2019-04-28T06:07:12.820Z,99.90
2019-04-28T06:09:46.602Z,99.90
2019-04-28T06:12:17.300Z,99.90
2019-04-28T06:14:47.173Z,99.90
2019-04-28T06:17:17.380Z,99.90
2019-04-28T06:19:47.241Z,99.90
2019-04-28T06:22:17.852Z,99.90
2019-04-28T06:24:51.142Z,99.90
2019-04-28T06:27:20.948Z,99.90
2019-04-28T06:29:51.156Z,99.90
2019-04-28T06:32:20.985Z,99.90
2019-04-28T06:34:55.560Z,99.90
2019-04-28T06:37:26.849Z,99.90
2019-04-28T06:39:56.633Z,99.90
2019-04-28T06:42:26.741Z,99.90
2019-04-28T06:44:58.813Z,99.90
2019-04-28T06:47:32.003Z,99.90
2019-04-28T06:50:05.599Z,99.90
2019-04-28T06:52:35.673Z,99.90
2019-04-28T06:55:08.168Z,99.90
2019-04-28T06:57:38.309Z,99.90
2019-04-28T07:00:09.979Z,99.90
2019-04-28T07:02:39.831Z,99.90
2019-04-28T07:05:10.872Z,99.90
2019-04-28T07:07:40.778Z,99.90
2019-04-28T07:10:29.090Z,99.90
2019-04-28T07:13:03.591Z,99.90
2019-04-28T07:15:33.521Z,99.90
2019-04-28T07:18:03.524Z,99.90
2019-04-28T07:20:56.525Z,99.90
2019-04-28T07:23:29.859Z,99.90
2019-04-28T07:26:00.182Z,99.90
2019-04-28T07:28:30.343Z,99.90
2019-04-28T07:31:01.262Z,99.90
2019-04-28T07:33:36.057Z,99.90
2019-04-28T07:36:05.090Z,99.90
2019-04-28T07:38:35.113Z,99.90
2019-04-28T07:41:06.941Z,99.90
2019-04-28T07:43:36.752Z,93.50
2019-04-28T07:46:06.562Z,90.20
2019-04-28T07:48:39.153Z,92.30
2019-04-28T07:51:09.322Z,90.50
2019-04-28T07:53:47.662Z,96.80
2019-04-28T07:56:20.866Z,99.90
2019-04-28T07:58:51.231Z,99.90
2019-04-28T08:01:22.722Z,99.90
2019-04-28T08:03:57.712Z,99.90
2019-04-28T08:06:29.354Z,99.90
2019-04-28T08:09:15.071Z,99.90
2019-04-28T08:11:48.452Z,99.90
2019-04-28T08:14:21.100Z,99.90
2019-04-28T08:16:52.268Z,99.90
2019-04-28T08:19:22.462Z,99.90
2019-04-28T08:21:55.030Z,99.30
2019-04-28T08:24:25.086Z,96.30
2019-04-28T08:26:58.840Z,73.60
2019-04-28T08:29:32.903Z,63.00
2019-04-28T08:32:22.853Z,60.90
2019-04-28T08:34:57.349Z,56.40
2019-04-28T08:37:27.187Z,53.20
2019-04-28T08:39:57.345Z,53.30
2019-04-28T08:42:27.392Z,53.90
2019-04-28T08:45:04.542Z,57.20
2019-04-28T08:47:38.495Z,57.90
2019-04-28T08:50:08.931Z,54.70
2019-04-28T08:52:39.150Z,53.10
2019-04-28T08:55:10.311Z,51.70
2019-04-28T08:57:40.319Z,53.10
2019-04-28T09:00:16.136Z,54.30
2019-04-28T09:02:45.801Z,56.50
2019-04-28T09:05:17.018Z,55.90
2019-04-28T09:07:47.269Z,54.80
2019-04-28T09:10:18.644Z,52.30
2019-04-28T09:12:50.426Z,50.60
2019-04-28T09:15:20.402Z,54.40
2019-04-28T09:17:52.539Z,61.30
2019-04-28T09:20:22.791Z,82.40
2019-04-28T09:22:53.058Z,95.50
2019-04-28T09:25:22.837Z,99.90
2019-04-28T09:27:54.861Z,99.90
2019-04-28T09:30:25.486Z,99.90
2019-04-28T09:32:55.628Z,99.90
2019-04-28T09:35:26.521Z,99.90
2019-04-28T09:37:56.355Z,99.90
2019-04-28T09:40:29.349Z,99.90
2019-04-28T09:43:26.048Z,99.90
2019-04-28T09:46:14.859Z,99.90
2019-04-28T09:48:47.491Z,91.60
2019-04-28T09:51:17.370Z,94.60
2019-04-28T09:53:48.761Z,96.10
2019-04-28T09:56:18.665Z,99.00
2019-04-28T09:58:48.918Z,94.30
2019-04-28T10:01:18.914Z,92.10
2019-04-28T10:03:49.259Z,78.00
2019-04-28T10:06:22.281Z,71.30
2019-04-28T10:08:52.783Z,72.00
2019-04-28T10:11:30.282Z,64.30
2019-04-28T10:14:00.792Z,61.90
2019-04-28T10:16:31.263Z,62.90
2019-04-28T10:19:01.423Z,67.60
2019-04-28T10:21:35.143Z,75.80
2019-04-28T10:24:06.370Z,76.70
2019-04-28T10:26:36.407Z,72.10
2019-04-28T10:29:06.718Z,74.40
2019-04-28T10:31:43.878Z,78.70
2019-04-28T10:34:14.281Z,74.80
2019-04-28T10:36:44.375Z,58.60
2019-04-28T10:39:32.415Z,56.80
2019-04-28T10:42:08.808Z,55.60
2019-04-28T10:44:43.431Z,50.50
2019-04-28T10:47:20.956Z,48.50
2019-04-28T10:49:53.745Z,47.60
2019-04-28T10:52:23.806Z,49.40
2019-04-28T10:54:57.440Z,51.40
2019-04-28T10:57:31.955Z,53.50
2019-04-28T11:00:06.084Z,52.40
2019-04-28T11:02:44.791Z,49.80
2019-04-28T11:05:40.850Z,50.00
2019-04-28T11:08:34.617Z,49.10
2019-04-28T11:11:23.494Z,46.90
2019-04-28T11:13:55.199Z,44.90
2019-04-28T11:16:35.012Z,49.00
2019-04-28T11:19:09.075Z,51.50
2019-04-28T11:21:41.034Z,51.50
2019-04-28T11:24:14.279Z,51.60
2019-04-28T11:26:47.898Z,52.80
2019-04-28T11:29:23.752Z,54.30
2019-04-28T11:31:57.127Z,57.70
2019-04-28T11:34:37.098Z,62.30
2019-04-28T11:37:13.170Z,70.50
2019-04-28T11:39:46.313Z,76.00
2019-04-28T11:42:16.478Z,81.40
2019-04-28T11:44:52.767Z,69.70
2019-04-28T11:47:24.337Z,65.40
2019-04-28T11:49:58.679Z,63.30
2019-04-28T11:52:41.554Z,68.10
2019-04-28T11:55:15.501Z,74.90
2019-04-28T11:57:48.611Z,78.00
2019-04-28T12:00:27.848Z,73.70
2019-04-28T12:03:00.294Z,63.30
2019-04-28T12:05:55.565Z,63.90
2019-04-28T12:08:26.334Z,60.20
2019-04-28T12:11:09.291Z,55.30
2019-04-28T12:13:47.770Z,51.30
2019-04-28T12:16:39.776Z,44.70
2019-04-28T12:19:20.825Z,42.20
2019-04-28T12:21:47.378Z,43.40
2019-04-28T12:24:21.564Z,44.10
2019-04-28T12:26:54.011Z,44.80
2019-04-28T12:29:27.673Z,45.40
2019-04-28T12:31:59.057Z,44.90
2019-04-28T12:34:33.613Z,45.60
2019-04-28T12:37:08.113Z,45.40
2019-04-28T12:39:39.257Z,45.60
2019-04-28T12:42:16.224Z,46.70
2019-04-28T12:49:12.396Z,47.70
2019-04-28T12:51:46.903Z,52.70
2019-04-28T12:54:18.611Z,64.50
2019-04-28T12:56:48.911Z,88.40
2019-04-28T12:59:25.436Z,93.50
2019-04-28T13:02:23.610Z,96.40
2019-04-28T13:04:56.971Z,98.70
2019-04-28T13:07:27.648Z,99.90
2019-04-28T13:10:00.869Z,99.90
2019-04-28T13:12:31.799Z,99.90
2019-04-28T13:15:14.635Z,99.90
2019-04-28T13:17:46.925Z,99.90
2019-04-28T13:20:22.097Z,99.90
2019-04-28T13:22:52.493Z,99.90
2019-04-28T13:25:33.274Z,99.90
2019-04-28T13:27:54.818Z,99.90
2019-04-28T13:30:30.146Z,99.90
2019-04-28T13:33:01.927Z,99.90
2019-04-28T13:35:32.868Z,99.90
2019-04-28T13:38:03.568Z,99.90
2019-04-28T13:40:36.420Z,99.90
2019-04-28T13:43:13.429Z,99.90
2019-04-28T13:45:51.368Z,99.90
2019-04-28T13:48:28.792Z,99.90
2019-04-28T13:50:59.230Z,99.90
2019-04-28T13:53:29.776Z,99.90
2019-04-28T13:56:02.685Z,99.90
2019-04-28T13:58:36.673Z,99.90
2019-04-28T14:01:24.862Z,99.90
2019-04-28T14:04:25.387Z,99.90
2019-04-28T14:07:06.933Z,99.90
2019-04-28T14:09:47.796Z,99.90
2019-04-28T14:12:19.877Z,99.90
2019-04-28T14:14:52.857Z,99.90
2019-04-28T14:17:24.556Z,99.90
2019-04-28T14:20:00.067Z,99.90
2019-04-28T14:22:30.539Z,99.90
2019-04-28T14:25:05.753Z,99.90
2019-04-28T14:27:36.360Z,99.90
2019-04-28T14:30:15.114Z,99.90
2019-04-28T14:32:51.458Z,99.90
2019-04-28T14:35:23.655Z,99.90
2019-04-28T14:37:55.142Z,99.90
2019-04-28T14:40:31.711Z,99.90
2019-04-28T14:43:08.601Z,99.90
2019-04-28T14:45:48.895Z,99.90
2019-04-28T14:48:36.031Z,99.90
2019-04-28T14:51:25.072Z,99.90
2019-04-28T14:54:04.511Z,99.90
2019-04-28T14:56:36.354Z,99.90
2019-04-28T14:59:11.893Z,99.90
2019-04-28T15:02:12.860Z,99.90
2019-04-28T15:05:08.854Z,99.90
2019-04-28T15:08:09.913Z,99.90
2019-04-28T15:11:02.264Z,99.90
2019-04-28T15:13:32.644Z,99.90
2019-04-28T15:16:05.835Z,99.90
2019-04-28T15:18:36.324Z,99.90
2019-04-28T15:21:07.917Z,99.90
2019-04-28T15:23:37.691Z,99.90
2019-04-28T15:26:20.965Z,99.90
2019-04-28T15:29:00.919Z,99.90
2019-04-28T15:31:31.620Z,99.90
2019-04-28T15:34:06.077Z,99.90
2019-04-28T15:36:39.143Z,99.90
2019-04-28T15:39:11.335Z,99.90
2019-04-28T15:41:49.442Z,99.90
2019-04-28T15:44:37.287Z,99.90
2019-04-28T15:47:38.119Z,99.90
2019-04-28T15:50:08.339Z,99.90
2019-04-28T15:52:48.248Z,99.90
2019-04-28T15:55:34.404Z,99.90
2019-04-28T15:58:23.716Z,99.90
2019-04-28T16:00:54.561Z,99.90
2019-04-28T16:03:25.575Z,99.90
2019-04-28T16:05:55.799Z,99.90
2019-04-28T16:08:31.347Z,99.90
2019-04-28T16:11:03.607Z,99.90
2019-04-28T16:13:40.434Z,99.90
2019-04-28T16:16:12.215Z,99.90
2019-04-28T16:18:55.527Z,99.90
2019-04-28T16:21:26.665Z,99.90
2019-04-28T16:23:59.026Z,99.90
2019-04-28T16:26:57.678Z,99.90
2019-04-28T16:29:33.095Z,99.90
2019-04-28T16:32:09.722Z,99.90
2019-04-28T16:34:41.607Z,99.90
2019-04-28T16:37:11.613Z,99.90
2019-04-28T16:39:44.606Z,99.90
2019-04-28T16:42:23.958Z,99.90
2019-04-28T16:45:01.255Z,99.90
2019-04-28T16:47:43.103Z,99.90
2019-04-28T16:50:16.910Z,99.90
2019-04-28T16:52:52.683Z,99.90
2019-04-28T16:55:49.451Z,99.90
2019-04-28T16:58:40.457Z,99.90
2019-04-28T17:01:37.862Z,99.90
2019-04-28T17:04:12.499Z,99.90
2019-04-28T17:06:47.258Z,99.90
2019-04-28T17:09:24.076Z,99.90
2019-04-28T17:11:54.434Z,99.90
2019-04-28T17:14:29.810Z,99.90
2019-04-28T17:17:06.312Z,99.90
2019-04-28T17:19:36.236Z,99.90
2019-04-28T17:22:08.346Z,99.90
2019-04-28T17:24:42.821Z,99.90
2019-04-28T17:27:12.778Z,99.90
2019-04-28T17:29:45.590Z,99.90
2019-04-28T17:32:16.914Z,99.90
2019-04-28T17:34:47.171Z,99.90
2019-04-28T17:37:25.602Z,99.90
2019-04-28T17:39:58.095Z,99.90
2019-04-28T17:42:31.215Z,99.90
2019-04-28T17:45:08.561Z,99.90
2019-04-28T17:47:42.420Z,99.90
2019-04-28T17:50:20.263Z,99.90
2019-04-28T17:53:08.395Z,99.90
2019-04-28T17:55:42.825Z,99.90
2019-04-28T17:58:13.664Z,99.90
2019-04-28T18:01:21.618Z,99.90
2019-04-28T18:04:15.330Z,99.90
2019-04-28T18:06:50.662Z,99.90
2019-04-28T18:09:22.614Z,99.90
2019-04-28T18:11:58.042Z,99.90
2019-04-28T18:14:37.786Z,99.90
2019-04-28T18:17:26.362Z,99.90
2019-04-28T18:20:01.017Z,99.90
2019-04-28T18:22:31.952Z,99.90
2019-04-28T18:25:03.137Z,99.90
2019-04-28T18:27:33.562Z,99.90
2019-04-28T18:30:06.825Z,99.90
2019-04-28T18:33:05.892Z,99.90
2019-04-28T18:35:51.416Z,99.90
2019-04-28T18:38:48.335Z,99.90
2019-04-28T18:41:36.496Z,99.90
2019-04-28T18:44:26.000Z,99.90
2019-04-28T18:47:03.216Z,99.90
2019-04-28T18:49:38.363Z,99.90
2019-04-28T18:52:13.346Z,99.90
2019-04-28T18:54:50.575Z,99.90
2019-04-28T18:57:24.637Z,99.90
2019-04-28T19:00:03.506Z,99.90
2019-04-28T19:02:44.749Z,99.90
2019-04-28T19:05:23.261Z,99.90
2019-04-28T19:08:15.637Z,99.90
2019-04-28T19:11:06.759Z,99.90
2019-04-28T19:13:44.507Z,99.90
2019-04-28T19:16:33.593Z,99.90
2019-04-28T19:19:06.575Z,99.90
2019-04-28T19:21:39.764Z,99.90
2019-04-28T19:24:16.433Z,99.90
2019-04-28T19:26:48.521Z,99.90
2019-04-28T19:29:31.641Z,99.90
2019-04-28T19:32:15.856Z,99.90
2019-04-28T19:34:50.920Z,99.90
2019-04-28T19:37:23.742Z,99.90
2019-04-28T19:39:59.327Z,99.90
2019-04-28T19:42:30.273Z,99.90
2019-04-28T19:45:06.263Z,99.90
2019-04-28T19:47:45.485Z,99.90
2019-04-28T19:50:20.243Z,99.90
2019-04-28T19:52:50.285Z,99.90
2019-04-28T19:55:24.743Z,99.90
2019-04-28T19:58:23.265Z,99.90
2019-04-28T20:01:16.357Z,99.90
2019-04-28T20:03:53.274Z,99.90
2019-04-28T20:06:26.491Z,99.90
2019-04-28T20:08:59.408Z,99.90
2019-04-28T20:11:31.510Z,99.90
2019-04-28T20:14:06.270Z,99.90
2019-04-28T20:16:39.235Z,99.90
2019-04-28T20:19:17.848Z,99.90
2019-04-28T20:21:54.588Z,99.90
2019-04-28T20:24:46.586Z,99.90
2019-04-28T20:27:10.151Z,99.90
2019-04-28T20:29:58.299Z,99.90
2019-04-28T20:32:35.579Z,99.90
2019-04-28T20:35:09.396Z,99.90
2019-04-28T20:37:46.017Z,99.90
2019-04-28T20:40:22.114Z,99.90
2019-04-28T20:43:16.730Z,99.90
2019-04-28T20:45:50.064Z,99.90
2019-04-28T20:48:20.693Z,99.90
2019-04-28T20:50:57.853Z,99.90
2019-04-28T20:53:30.478Z,99.90
2019-04-28T20:56:01.865Z,99.90
2019-04-28T20:58:32.217Z,99.90
2019-04-28T21:01:02.398Z,99.90
2019-04-28T21:03:42.261Z,99.90
2019-04-28T21:06:17.930Z,99.90
2019-04-28T21:09:00.518Z,99.90
2019-04-28T21:11:31.047Z,99.90
2019-04-28T21:14:05.235Z,99.90
2019-04-28T21:16:38.096Z,99.90
2019-04-28T21:19:08.378Z,99.90
2019-04-28T21:21:41.805Z,99.90
2019-04-28T21:24:12.491Z,99.90
2019-04-28T21:26:44.108Z,99.90
2019-04-28T21:29:14.449Z,99.90
2019-04-28T21:31:44.411Z,99.90
2019-04-28T21:34:20.052Z,99.90
2019-04-28T21:36:54.284Z,99.90
2019-04-28T21:39:29.112Z,99.90
2019-04-28T21:42:06.507Z,99.90
2019-04-28T21:44:57.088Z,99.90
2019-04-28T21:47:31.142Z,99.90
2019-04-28T21:50:08.244Z,99.90
2019-04-28T21:52:42.444Z,99.90
2019-04-28T21:55:16.352Z,99.90
2019-04-28T21:57:49.241Z,99.90
2019-04-28T22:00:27.005Z,99.90
2019-04-28T22:03:06.429Z,99.90
2019-04-28T22:05:47.738Z,99.90
2019-04-28T22:08:24.713Z,99.90
2019-04-28T22:10:59.554Z,99.90
2019-04-28T22:13:34.899Z,99.90
2019-04-28T22:16:08.612Z,99.90
2019-04-28T22:18:41.232Z,99.90
2019-04-28T22:21:11.912Z,99.90
2019-04-28T22:23:55.468Z,99.90
2019-04-28T22:26:46.911Z,99.90
2019-04-28T22:29:18.997Z,99.90
2019-04-28T22:31:53.944Z,99.90
2019-04-28T22:34:25.240Z,99.90
2019-04-28T22:36:55.674Z,99.90
2019-04-28T22:39:25.872Z,99.90
2019-04-28T22:42:01.901Z,99.90
2019-04-28T22:44:32.330Z,99.90
2019-04-28T22:47:02.062Z,99.90
2019-04-28T22:49:31.913Z,99.90
2019-04-28T22:52:01.693Z,99.90
2019-04-28T22:54:42.355Z,99.90
2019-04-28T22:57:33.632Z,99.90
2019-04-28T23:00:07.343Z,99.90
2019-04-28T23:02:37.353Z,99.90
2019-04-28T23:05:09.014Z,99.90
2019-04-28T23:07:39.395Z,99.90
2019-04-28T23:10:10.885Z,99.90
2019-04-28T23:12:43.412Z,99.90
2019-04-28T23:15:22.870Z,99.90
2019-04-28T23:17:54.810Z,99.90
2019-04-28T23:20:26.776Z,99.90
2019-04-28T23:22:58.518Z,99.90
2019-04-28T23:25:28.798Z,99.90
2019-04-28T23:28:00.048Z,99.90
2019-04-28T23:30:43.877Z,99.90
2019-04-28T23:33:13.807Z,99.90
2019-04-28T23:35:44.126Z,99.90
2019-04-28T23:38:13.952Z,99.90
2019-04-28T23:41:00.200Z,99.90
2019-04-28T23:43:31.655Z,99.90
2019-04-28T23:46:01.412Z,99.90
2019-04-28T23:48:41.357Z,99.90
2019-04-28T23:51:36.091Z,99.90
2019-04-28T23:54:07.963Z,99.90
2019-04-28T23:56:40.928Z,99.90
2019-04-28T23:59:11.068Z,99.90
